sensor_id;sensor_type;location;lat;lon;timestamp;pressure;altitude;pressure_sealevel;temperature;humidity
48517;BME280;34310;51.904;4.256;2023-03-18T00:02:15;100846.88;;;16.40;57.51
48517;BME280;34310;51.904;4.256;2023-03-18T00:04:44;100839.94;;;16.40;57.51
48517;BME280;34310;51.904;4.256;2023-03-18T00:07:12;100840.69;;;16.38;57.48
48517;BME280;34310;51.904;4.256;2023-03-18T00:09:40;100838.97;;;16.38;57.64
48517;BME280;34310;51.904;4.256;2023-03-18T00:12:08;100848.50;;;16.38;57.46
48517;BME280;34310;51.904;4.256;2023-03-18T00:14:37;100845.00;;;16.37;57.48
48517;BME280;34310;51.904;4.256;2023-03-18T00:17:05;100847.63;;;16.37;57.52
48517;BME280;34310;51.904;4.256;2023-03-18T00:19:32;100849.25;;;16.35;57.46
48517;BME280;34310;51.904;4.256;2023-03-18T00:22:00;100845.84;;;16.36;57.63
48517;BME280;34310;51.904;4.256;2023-03-18T00:24:27;100841.44;;;16.35;57.44
48517;BME280;34310;51.904;4.256;2023-03-18T00:26:55;100840.56;;;16.35;57.63
48517;BME280;34310;51.904;4.256;2023-03-18T00:29:23;100833.63;;;16.35;57.39
48517;BME280;34310;51.904;4.256;2023-03-18T00:31:51;100837.06;;;16.34;57.57
48517;BME280;34310;51.904;4.256;2023-03-18T00:34:18;100836.16;;;16.34;57.50
48517;BME280;34310;51.904;4.256;2023-03-18T00:36:47;100832.66;;;16.33;57.49
48517;BME280;34310;51.904;4.256;2023-03-18T00:39:17;100836.16;;;16.34;57.42
48517;BME280;34310;51.904;4.256;2023-03-18T00:41:47;100837.88;;;16.33;57.56
48517;BME280;34310;51.904;4.256;2023-03-18T00:44:15;100839.59;;;16.33;57.47
48517;BME280;34310;51.904;4.256;2023-03-18T00:46:42;100838.69;;;16.32;57.47
48517;BME280;34310;51.904;4.256;2023-03-18T00:49:09;100843.03;;;16.32;57.42
48517;BME280;34310;51.904;4.256;2023-03-18T00:51:37;100849.06;;;16.31;57.39
48517;BME280;34310;51.904;4.256;2023-03-18T00:54:09;100847.34;;;16.31;57.56
48517;BME280;34310;51.904;4.256;2023-03-18T00:56:39;100856.88;;;16.31;57.50
48517;BME280;34310;51.904;4.256;2023-03-18T00:59:06;100848.16;;;16.30;57.54
48517;BME280;34310;51.904;4.256;2023-03-18T01:01:35;100842.06;;;16.30;57.41
48517;BME280;34310;51.904;4.256;2023-03-18T01:04:03;100851.59;;;16.29;57.61
48517;BME280;34310;51.904;4.256;2023-03-18T01:06:34;100845.47;;;16.29;57.53
48517;BME280;34310;51.904;4.256;2023-03-18T01:09:03;100846.31;;;16.28;57.62
48517;BME280;34310;51.904;4.256;2023-03-18T01:11:31;100835.88;;;16.28;57.49
48517;BME280;34310;51.904;4.256;2023-03-18T01:13:59;100841.03;;;16.26;57.39
48517;BME280;34310;51.904;4.256;2023-03-18T01:16:27;100842.81;;;16.27;57.66
48517;BME280;34310;51.904;4.256;2023-03-18T01:18:56;100846.22;;;16.26;57.60
48517;BME280;34310;51.904;4.256;2023-03-18T01:21:23;100851.44;;;16.26;57.46
48517;BME280;34310;51.904;4.256;2023-03-18T01:23:51;100848.75;;;16.25;57.53
48517;BME280;34310;51.904;4.256;2023-03-18T01:26:19;100857.47;;;16.25;57.63
48517;BME280;34310;51.904;4.256;2023-03-18T01:28:47;100853.97;;;16.25;57.62
48517;BME280;34310;51.904;4.256;2023-03-18T01:31:14;100842.66;;;16.24;57.42
48517;BME280;34310;51.904;4.256;2023-03-18T01:33:42;100847.88;;;16.24;57.59
48517;BME280;34310;51.904;4.256;2023-03-18T01:36:10;100849.59;;;16.24;57.64
48517;BME280;34310;51.904;4.256;2023-03-18T01:38:38;100852.19;;;16.24;57.63
48517;BME280;34310;51.904;4.256;2023-03-18T01:41:07;100858.22;;;16.23;57.50
48517;BME280;34310;51.904;4.256;2023-03-18T01:43:37;100849.50;;;16.22;57.56
48517;BME280;34310;51.904;4.256;2023-03-18T01:46:34;100848.63;;;16.22;57.64
48517;BME280;34310;51.904;4.256;2023-03-18T01:49:15;100843.41;;;16.22;57.63
48517;BME280;34310;51.904;4.256;2023-03-18T01:51:58;100845.13;;;16.21;57.59
48517;BME280;34310;51.904;4.256;2023-03-18T01:54:28;100844.22;;;16.21;57.50
48517;BME280;34310;51.904;4.256;2023-03-18T01:56:56;100848.53;;;16.20;57.67
48517;BME280;34310;51.904;4.256;2023-03-18T01:59:27;100849.44;;;16.21;57.69
48517;BME280;34310;51.904;4.256;2023-03-18T02:02:05;100851.97;;;16.19;57.55
48517;BME280;34310;51.904;4.256;2023-03-18T02:04:38;100851.16;;;16.20;57.63
48517;BME280;34310;51.904;4.256;2023-03-18T02:07:06;100848.44;;;16.19;57.78
48517;BME280;34310;51.904;4.256;2023-03-18T02:09:34;100849.25;;;16.18;57.53
48517;BME280;34310;51.904;4.256;2023-03-18T02:12:03;100852.75;;;16.18;57.53
48517;BME280;34310;51.904;4.256;2023-03-18T02:14:30;100852.75;;;16.18;57.71
48517;BME280;34310;51.904;4.256;2023-03-18T02:17:08;100850.97;;;16.17;57.60
48517;BME280;34310;51.904;4.256;2023-03-18T02:22:43;100851.78;;;16.16;57.58
48517;BME280;34310;51.904;4.256;2023-03-18T02:27:55;100857.91;;;16.17;57.60
48517;BME280;34310;51.904;4.256;2023-03-18T02:30:41;100862.13;;;16.15;57.54
48517;BME280;34310;51.904;4.256;2023-03-18T02:33:10;100863.03;;;16.15;57.67
48517;BME280;34310;51.904;4.256;2023-03-18T02:35:38;100862.13;;;16.15;57.66
48517;BME280;34310;51.904;4.256;2023-03-18T02:38:06;100853.34;;;16.13;57.65
48517;BME280;34310;51.904;4.256;2023-03-18T02:40:36;100873.38;;;16.14;57.60
48517;BME280;34310;51.904;4.256;2023-03-18T02:43:29;100858.66;;;16.14;57.59
48517;BME280;34310;51.904;4.256;2023-03-18T02:48:44;100862.97;;;16.14;57.75
48517;BME280;34310;51.904;4.256;2023-03-18T02:51:14;100855.97;;;16.13;57.64
48517;BME280;34310;51.904;4.256;2023-03-18T02:53:43;100856.78;;;16.11;57.64
48517;BME280;34310;51.904;4.256;2023-03-18T02:56:11;100865.50;;;16.12;57.68
48517;BME280;34310;51.904;4.256;2023-03-18T02:58:38;100862.00;;;16.11;57.59
48517;BME280;34310;51.904;4.256;2023-03-18T03:01:06;100864.59;;;16.11;57.61
48517;BME280;34310;51.904;4.256;2023-03-18T03:03:36;100861.03;;;16.09;57.71
48517;BME280;34310;51.904;4.256;2023-03-18T03:06:04;100871.53;;;16.11;57.61
48517;BME280;34310;51.904;4.256;2023-03-18T03:08:31;100868.03;;;16.10;57.71
48517;BME280;34310;51.904;4.256;2023-03-18T03:10:59;100874.94;;;16.10;57.70
48517;BME280;34310;51.904;4.256;2023-03-18T03:13:27;100882.75;;;16.10;57.59
48517;BME280;34310;51.904;4.256;2023-03-18T03:15:55;100890.56;;;16.10;57.62
48517;BME280;34310;51.904;4.256;2023-03-18T03:18:23;100895.78;;;16.10;57.67
48517;BME280;34310;51.904;4.256;2023-03-18T03:20:50;100901.81;;;16.09;57.68
48517;BME280;34310;51.904;4.256;2023-03-18T03:23:18;100894.88;;;16.09;57.61
48517;BME280;34310;51.904;4.256;2023-03-18T03:25:45;100897.41;;;16.08;57.61
48517;BME280;34310;51.904;4.256;2023-03-18T03:28:14;100903.53;;;16.08;57.81
48517;BME280;34310;51.904;4.256;2023-03-18T03:30:43;100899.19;;;16.09;57.62
48517;BME280;34310;51.904;4.256;2023-03-18T03:33:11;100892.22;;;16.08;57.65
48517;BME280;34310;51.904;4.256;2023-03-18T03:35:39;100886.09;;;16.07;57.71
48517;BME280;34310;51.904;4.256;2023-03-18T03:38:08;100896.53;;;16.07;57.64
48517;BME280;34310;51.904;4.256;2023-03-18T03:40:36;100896.53;;;16.07;57.74
48517;BME280;34310;51.904;4.256;2023-03-18T03:43:04;100891.31;;;16.07;57.74
48517;BME280;34310;51.904;4.256;2023-03-18T03:45:32;100889.53;;;16.06;57.67
48517;BME280;34310;51.904;4.256;2023-03-18T03:48:00;100888.63;;;16.06;57.70
48517;BME280;34310;51.904;4.256;2023-03-18T03:50:27;100890.34;;;16.05;57.72
48517;BME280;34310;51.904;4.256;2023-03-18T03:52:55;100887.75;;;16.05;57.76
48517;BME280;34310;51.904;4.256;2023-03-18T03:55:23;100889.47;;;16.05;57.82
48517;BME280;34310;51.904;4.256;2023-03-18T03:57:51;100895.56;;;16.05;57.66
48517;BME280;34310;51.904;4.256;2023-03-18T04:00:20;100893.84;;;16.06;57.88
48517;BME280;34310;51.904;4.256;2023-03-18T04:02:49;100893.78;;;16.04;57.72
48517;BME280;34310;51.904;4.256;2023-03-18T04:05:19;100906.78;;;16.04;57.72
48517;BME280;34310;51.904;4.256;2023-03-18T04:07:47;100912.00;;;16.04;57.86
48517;BME280;34310;51.904;4.256;2023-03-18T04:10:16;100914.59;;;16.04;57.81
48517;BME280;34310;51.904;4.256;2023-03-18T04:12:44;100929.34;;;16.04;57.76
48517;BME280;34310;51.904;4.256;2023-03-18T04:15:13;100932.75;;;16.03;57.81
48517;BME280;34310;51.904;4.256;2023-03-18T04:17:42;100930.16;;;16.03;57.80
48517;BME280;34310;51.904;4.256;2023-03-18T04:20:11;100932.75;;;16.03;57.72
48517;BME280;34310;51.904;4.256;2023-03-18T04:22:39;100930.16;;;16.03;57.67
48517;BME280;34310;51.904;4.256;2023-03-18T04:25:07;100931.88;;;16.02;57.70
48517;BME280;34310;51.904;4.256;2023-03-18T04:27:35;100941.38;;;16.02;57.91
48517;BME280;34310;51.904;4.256;2023-03-18T04:30:05;100938.78;;;16.02;57.89
48517;BME280;34310;51.904;4.256;2023-03-18T04:32:33;100943.09;;;16.01;57.78
48517;BME280;34310;51.904;4.256;2023-03-18T04:35:00;100939.59;;;16.01;57.77
48517;BME280;34310;51.904;4.256;2023-03-18T04:37:27;100946.53;;;16.00;57.83
48517;BME280;34310;51.904;4.256;2023-03-18T04:39:55;100945.72;;;16.01;57.79
48517;BME280;34310;51.904;4.256;2023-03-18T04:42:22;100958.72;;;16.01;57.70
48517;BME280;34310;51.904;4.256;2023-03-18T04:44:49;100951.72;;;16.00;57.85
48517;BME280;34310;51.904;4.256;2023-03-18T04:47:17;100963.88;;;16.00;57.85
48517;BME280;34310;51.904;4.256;2023-03-18T04:49:44;100965.56;;;15.99;57.75
48517;BME280;34310;51.904;4.256;2023-03-18T04:52:12;100959.53;;;16.00;57.71
48517;BME280;34310;51.904;4.256;2023-03-18T04:54:39;100956.94;;;16.00;57.87
48517;BME280;34310;51.904;4.256;2023-03-18T04:57:06;100954.25;;;15.99;57.95
48517;BME280;34310;51.904;4.256;2023-03-18T04:59:34;100951.59;;;15.97;57.94
48517;BME280;34310;51.904;4.256;2023-03-18T05:02:02;100959.47;;;15.99;57.76
48517;BME280;34310;51.904;4.256;2023-03-18T05:04:30;100962.06;;;15.99;57.95
48517;BME280;34310;51.904;4.256;2023-03-18T05:06:57;100955.06;;;15.98;57.83
48517;BME280;34310;51.904;4.256;2023-03-18T05:09:24;100943.78;;;15.97;57.85
48517;BME280;34310;51.904;4.256;2023-03-18T05:11:52;100941.16;;;15.97;57.81
48517;BME280;34310;51.904;4.256;2023-03-18T05:14:19;100945.47;;;15.97;57.95
48517;BME280;34310;51.904;4.256;2023-03-18T05:16:47;100951.59;;;15.97;57.87
48517;BME280;34310;51.904;4.256;2023-03-18T05:19:15;100946.28;;;15.96;57.93
48517;BME280;34310;51.904;4.256;2023-03-18T05:21:43;100956.72;;;15.96;57.99
48517;BME280;34310;51.904;4.256;2023-03-18T05:24:10;100955.81;;;15.95;57.83
48517;BME280;34310;51.904;4.256;2023-03-18T05:26:38;100950.69;;;15.97;58.02
48517;BME280;34310;51.904;4.256;2023-03-18T05:29:05;100944.50;;;15.95;58.00
48517;BME280;34310;51.904;4.256;2023-03-18T05:31:32;100939.31;;;15.95;57.93
48517;BME280;34310;51.904;4.256;2023-03-18T05:33:59;100935.00;;;15.95;58.05
48517;BME280;34310;51.904;4.256;2023-03-18T05:36:27;100928.81;;;15.93;57.82
48517;BME280;34310;51.904;4.256;2023-03-18T05:38:55;100930.59;;;15.94;57.92
48517;BME280;34310;51.904;4.256;2023-03-18T05:41:23;100927.19;;;15.95;57.97
48517;BME280;34310;51.904;4.256;2023-03-18T05:43:50;100934.91;;;15.94;58.04
48517;BME280;34310;51.904;4.256;2023-03-18T05:46:17;100926.22;;;15.93;57.98
48517;BME280;34310;51.904;4.256;2023-03-18T05:48:45;100934.03;;;15.93;57.82
48517;BME280;34310;51.904;4.256;2023-03-18T05:51:13;100936.63;;;15.93;57.81
48517;BME280;34310;51.904;4.256;2023-03-18T05:53:40;100937.44;;;15.92;58.01
48517;BME280;34310;51.904;4.256;2023-03-18T05:56:07;100937.44;;;15.92;57.93
48517;BME280;34310;51.904;4.256;2023-03-18T05:58:35;100950.47;;;15.92;57.92
48517;BME280;34310;51.904;4.256;2023-03-18T06:01:02;100955.66;;;15.92;57.91
48517;BME280;34310;51.904;4.256;2023-03-18T06:03:30;100969.50;;;15.91;58.05
48517;BME280;34310;51.904;4.256;2023-03-18T06:05:58;100971.22;;;15.91;57.91
48517;BME280;34310;51.904;4.256;2023-03-18T06:08:26;100966.00;;;15.91;58.05
48517;BME280;34310;51.904;4.256;2023-03-18T06:10:54;100972.94;;;15.90;57.93
48517;BME280;34310;51.904;4.256;2023-03-18T06:13:22;100975.53;;;15.90;57.88
48517;BME280;34310;51.904;4.256;2023-03-18T06:15:56;100979.91;;;15.91;58.03
48517;BME280;34310;51.904;4.256;2023-03-18T06:18:24;100973.81;;;15.91;57.92
48517;BME280;34310;51.904;4.256;2023-03-18T06:20:51;100986.72;;;15.89;57.88
48517;BME280;34310;51.904;4.256;2023-03-18T06:23:19;100978.03;;;15.89;57.91
48517;BME280;34310;51.904;4.256;2023-03-18T06:25:46;100984.13;;;15.89;58.02
48517;BME280;34310;51.904;4.256;2023-03-18T06:28:15;100985.84;;;15.89;57.88
48517;BME280;34310;51.904;4.256;2023-03-18T06:30:43;100991.03;;;15.89;57.94
48517;BME280;34310;51.904;4.256;2023-03-18T06:33:10;100992.75;;;15.88;58.08
48517;BME280;34310;51.904;4.256;2023-03-18T06:35:38;101000.56;;;15.88;58.06
48517;BME280;34310;51.904;4.256;2023-03-18T06:38:05;100984.84;;;15.87;57.96
48517;BME280;34310;51.904;4.256;2023-03-18T06:40:34;100994.38;;;15.86;58.08
48517;BME280;34310;51.904;4.256;2023-03-18T06:43:02;100995.28;;;15.87;57.92
48517;BME280;34310;51.904;4.256;2023-03-18T06:45:29;100998.78;;;15.87;57.93
48517;BME280;34310;51.904;4.256;2023-03-18T06:47:57;101005.69;;;15.87;58.07
48517;BME280;34310;51.904;4.256;2023-03-18T06:50:27;101000.47;;;15.87;58.05
48517;BME280;34310;51.904;4.256;2023-03-18T06:52:54;101003.91;;;15.86;58.08
48517;BME280;34310;51.904;4.256;2023-03-18T06:55:22;101003.09;;;15.87;58.07
48517;BME280;34310;51.904;4.256;2023-03-18T06:57:49;100999.59;;;15.86;57.95
48517;BME280;34310;51.904;4.256;2023-03-18T07:00:18;101008.22;;;15.85;58.15
48517;BME280;34310;51.904;4.256;2023-03-18T07:02:45;101010.00;;;15.86;58.09
48517;BME280;34310;51.904;4.256;2023-03-18T07:05:12;101010.81;;;15.85;58.02
48517;BME280;34310;51.904;4.256;2023-03-18T07:07:40;101010.81;;;15.85;58.06
48517;BME280;34310;51.904;4.256;2023-03-18T07:10:13;101003.91;;;15.86;58.06
48517;BME280;34310;51.904;4.256;2023-03-18T07:12:43;101007.31;;;15.85;58.13
48517;BME280;34310;51.904;4.256;2023-03-18T07:15:10;101001.31;;;15.86;58.12
48517;BME280;34310;51.904;4.256;2023-03-18T07:17:38;101003.00;;;15.85;58.09
48517;BME280;34310;51.904;4.256;2023-03-18T07:20:06;101005.63;;;15.85;58.12
48517;BME280;34310;51.904;4.256;2023-03-18T07:22:34;101012.53;;;15.85;58.05
48517;BME280;34310;51.904;4.256;2023-03-18T07:25:01;101011.63;;;15.84;58.06
48517;BME280;34310;51.904;4.256;2023-03-18T07:27:28;101019.44;;;15.84;58.13
48517;BME280;34310;51.904;4.256;2023-03-18T07:29:56;101022.94;;;15.85;58.20
48517;BME280;34310;51.904;4.256;2023-03-18T07:32:23;101025.63;;;15.86;58.24
48517;BME280;34310;51.904;4.256;2023-03-18T07:34:50;101017.75;;;15.85;58.25
48517;BME280;34310;51.904;4.256;2023-03-18T07:37:18;101020.34;;;15.85;58.08
48517;BME280;34310;51.904;4.256;2023-03-18T07:39:45;101036.84;;;15.85;58.21
48517;BME280;34310;51.904;4.256;2023-03-18T07:42:13;101033.34;;;15.85;58.20
48517;BME280;34310;51.904;4.256;2023-03-18T07:44:40;101047.19;;;15.84;58.23
48517;BME280;34310;51.904;4.256;2023-03-18T07:47:07;101038.50;;;15.83;58.20
48517;BME280;34310;51.904;4.256;2023-03-18T07:49:35;101040.28;;;15.84;58.27
48517;BME280;34310;51.904;4.256;2023-03-18T07:52:02;101032.47;;;15.84;58.33
48517;BME280;34310;51.904;4.256;2023-03-18T07:54:30;101027.25;;;15.84;58.20
48517;BME280;34310;51.904;4.256;2023-03-18T07:56:57;101033.34;;;15.85;58.33
48517;BME280;34310;51.904;4.256;2023-03-18T07:59:24;101029.03;;;15.85;58.17
48517;BME280;34310;51.904;4.256;2023-03-18T08:01:51;101043.78;;;15.85;58.31
48517;BME280;34310;51.904;4.256;2023-03-18T08:04:19;101046.38;;;15.85;58.39
48517;BME280;34310;51.904;4.256;2023-03-18T08:06:46;101031.56;;;15.84;58.27
48517;BME280;34310;51.904;4.256;2023-03-18T08:09:14;101044.66;;;15.85;58.34
48517;BME280;34310;51.904;4.256;2023-03-18T08:11:41;101032.47;;;15.84;58.25
48517;BME280;34310;51.904;4.256;2023-03-18T08:14:09;101043.78;;;15.85;58.30
48517;BME280;34310;51.904;4.256;2023-03-18T08:16:36;101041.16;;;15.85;58.33
48517;BME280;34310;51.904;4.256;2023-03-18T08:19:03;101039.47;;;15.85;58.25
48517;BME280;34310;51.904;4.256;2023-03-18T08:21:31;101043.78;;;15.85;58.32
48517;BME280;34310;51.904;4.256;2023-03-18T08:23:59;101047.28;;;15.85;58.35
48517;BME280;34310;51.904;4.256;2023-03-18T08:26:26;101054.25;;;15.86;58.36
48517;BME280;34310;51.904;4.256;2023-03-18T08:28:54;101062.97;;;15.87;58.41
48517;BME280;34310;51.904;4.256;2023-03-18T08:31:21;101059.47;;;15.86;58.33
48517;BME280;34310;51.904;4.256;2023-03-18T08:33:49;101056.88;;;15.86;58.44
48517;BME280;34310;51.904;4.256;2023-03-18T08:36:20;101062.16;;;15.88;58.31
48517;BME280;34310;51.904;4.256;2023-03-18T08:38:47;101069.97;;;15.88;58.45
48517;BME280;34310;51.904;4.256;2023-03-18T08:41:15;101078.66;;;15.88;58.33
48517;BME280;34310;51.904;4.256;2023-03-18T08:43:43;101083.88;;;15.88;58.41
48517;BME280;34310;51.904;4.256;2023-03-18T08:46:11;101094.28;;;15.88;58.42
48517;BME280;34310;51.904;4.256;2023-03-18T08:48:38;101083.88;;;15.88;58.25
48517;BME280;34310;51.904;4.256;2023-03-18T08:51:07;101078.66;;;15.88;58.15
48517;BME280;34310;51.904;4.256;2023-03-18T08:53:35;101088.28;;;15.89;58.09
48517;BME280;34310;51.904;4.256;2023-03-18T08:56:04;101078.75;;;15.90;58.29
48517;BME280;34310;51.904;4.256;2023-03-18T08:58:34;101083.97;;;15.90;58.27
48517;BME280;34310;51.904;4.256;2023-03-18T09:01:02;101079.69;;;15.90;58.20
48517;BME280;34310;51.904;4.256;2023-03-18T09:03:32;101077.06;;;15.90;58.27
48517;BME280;34310;51.904;4.256;2023-03-18T09:06:01;101071.94;;;15.92;58.26
48517;BME280;34310;51.904;4.256;2023-03-18T09:08:29;101071.94;;;15.92;58.16
48517;BME280;34310;51.904;4.256;2023-03-18T09:10:57;101091.06;;;15.92;58.22
48517;BME280;34310;51.904;4.256;2023-03-18T09:13:24;101090.25;;;15.93;58.27
48517;BME280;34310;51.904;4.256;2023-03-18T09:15:52;101106.78;;;15.94;58.16
48517;BME280;34310;51.904;4.256;2023-03-18T09:18:20;101097.25;;;15.94;58.19
48517;BME280;34310;51.904;4.256;2023-03-18T09:20:49;101097.25;;;15.94;58.34
48517;BME280;34310;51.904;4.256;2023-03-18T09:23:17;101098.16;;;15.95;58.24
48517;BME280;34310;51.904;4.256;2023-03-18T09:25:45;101100.84;;;15.96;58.21
48517;BME280;34310;51.904;4.256;2023-03-18T09:28:13;101095.63;;;15.96;58.40
48517;BME280;34310;51.904;4.256;2023-03-18T09:30:41;101099.13;;;15.97;58.18
48517;BME280;34310;51.904;4.256;2023-03-18T09:33:08;101093.09;;;15.98;58.35
48517;BME280;34310;51.904;4.256;2023-03-18T09:35:38;101099.19;;;15.98;58.34
48517;BME280;34310;51.904;4.256;2023-03-18T09:38:05;101101.00;;;15.99;58.46
48517;BME280;34310;51.904;4.256;2023-03-18T09:40:42;101101.00;;;15.99;58.40
48517;BME280;34310;51.904;4.256;2023-03-18T09:43:22;101099.28;;;16.00;58.43
48517;BME280;34310;51.904;4.256;2023-03-18T09:51:23;101090.66;;;16.01;58.41
48517;BME280;34310;51.904;4.256;2023-03-18T09:53:57;101097.72;;;16.03;58.33
48517;BME280;34310;51.904;4.256;2023-03-18T09:56:30;101100.34;;;16.03;58.24
48517;BME280;34310;51.904;4.256;2023-03-18T09:59:18;101097.72;;;16.03;58.29
48517;BME280;34310;51.904;4.256;2023-03-18T10:01:51;101099.53;;;16.04;58.33
48517;BME280;34310;51.904;4.256;2023-03-18T10:04:26;101099.53;;;16.04;58.45
48517;BME280;34310;51.904;4.256;2023-03-18T10:07:02;101095.22;;;16.05;58.31
48517;BME280;34310;51.904;4.256;2023-03-18T10:09:53;101098.72;;;16.05;58.39
48517;BME280;34310;51.904;4.256;2023-03-18T10:12:34;101101.31;;;16.05;58.23
48517;BME280;34310;51.904;4.256;2023-03-18T10:17:55;101103.09;;;16.06;58.33
48517;BME280;34310;51.904;4.256;2023-03-18T10:29:43;101112.78;;;16.09;58.39
48517;BME280;34310;51.904;4.256;2023-03-18T10:32:37;101113.69;;;16.09;58.49
48517;BME280;34310;51.904;4.256;2023-03-18T10:40:38;101114.56;;;16.10;58.48
48517;BME280;34310;51.904;4.256;2023-03-18T10:43:16;101123.28;;;16.10;58.46
48517;BME280;34310;51.904;4.256;2023-03-18T10:45:46;101126.78;;;16.11;58.40
48517;BME280;34310;51.904;4.256;2023-03-18T10:48:16;101136.31;;;16.10;58.34
48517;BME280;34310;51.904;4.256;2023-03-18T10:56:27;101135.56;;;16.13;58.22
48517;BME280;34310;51.904;4.256;2023-03-18T10:58:54;101130.34;;;16.13;58.35
48517;BME280;34310;51.904;4.256;2023-03-18T11:01:24;101129.47;;;16.13;58.23
48517;BME280;34310;51.904;4.256;2023-03-18T11:04:04;101125.22;;;16.15;58.29
48517;BME280;34310;51.904;4.256;2023-03-18T11:06:55;101121.72;;;16.14;58.39
48517;BME280;34310;51.904;4.256;2023-03-18T11:09:32;101108.78;;;16.16;58.24
48517;BME280;34310;51.904;4.256;2023-03-18T11:12:14;101108.78;;;16.16;58.30
48517;BME280;34310;51.904;4.256;2023-03-18T11:14:49;101107.97;;;16.17;58.49
48517;BME280;34310;51.904;4.256;2023-03-18T11:17:27;101100.97;;;16.16;58.29
48517;BME280;34310;51.904;4.256;2023-03-18T11:22:44;101092.34;;;16.17;58.34
48517;BME280;34310;51.904;4.256;2023-03-18T11:25:19;101096.72;;;16.18;58.36
48517;BME280;34310;51.904;4.256;2023-03-18T11:28:02;101091.53;;;16.18;58.28
48517;BME280;34310;51.904;4.256;2023-03-18T11:30:51;101096.72;;;16.18;58.51
48517;BME280;34310;51.904;4.256;2023-03-18T11:33:29;101100.22;;;16.18;58.55
48517;BME280;34310;51.904;4.256;2023-03-18T11:36:04;101101.13;;;16.19;58.43
48517;BME280;34310;51.904;4.256;2023-03-18T11:38:34;101097.72;;;16.20;58.41
48517;BME280;34310;51.904;4.256;2023-03-18T11:41:13;101096.84;;;16.19;58.63
48517;BME280;34310;51.904;4.256;2023-03-18T11:46:48;101090.81;;;16.20;58.50
48517;BME280;34310;51.904;4.256;2023-03-18T11:49:22;101099.53;;;16.21;58.47
48517;BME280;34310;51.904;4.256;2023-03-18T11:55:01;101094.38;;;16.22;58.52
48517;BME280;34310;51.904;4.256;2023-03-18T12:00:41;101101.31;;;16.22;58.44
48517;BME280;34310;51.904;4.256;2023-03-18T12:06:22;101079.66;;;16.23;58.53
48517;BME280;34310;51.904;4.256;2023-03-18T12:09:16;101081.44;;;16.24;58.46
48517;BME280;34310;51.904;4.256;2023-03-18T12:21:29;101092.75;;;16.24;58.56
48517;BME280;34310;51.904;4.256;2023-03-18T12:24:12;101091.94;;;16.25;58.60
48517;BME280;34310;51.904;4.256;2023-03-18T12:34:47;101073.78;;;16.27;58.70
48517;BME280;34310;51.904;4.256;2023-03-18T12:40:15;101071.19;;;16.27;58.74
48517;BME280;34310;51.904;4.256;2023-03-18T12:45:35;101062.63;;;16.29;58.86
48517;BME280;34310;51.904;4.256;2023-03-18T12:48:23;101059.13;;;16.29;58.85
48517;BME280;34310;51.904;4.256;2023-03-18T12:51:14;101064.47;;;16.32;58.87
48517;BME280;34310;51.904;4.256;2023-03-18T12:53:44;101064.47;;;16.32;58.86
48517;BME280;34310;51.904;4.256;2023-03-18T12:56:26;101062.84;;;16.34;58.88
48517;BME280;34310;51.904;4.256;2023-03-18T12:59:21;101058.53;;;16.34;58.92
48517;BME280;34310;51.904;4.256;2023-03-18T13:04:42;101054.28;;;16.36;59.21
48517;BME280;34310;51.904;4.256;2023-03-18T13:07:23;101049.97;;;16.37;59.09
48517;BME280;34310;51.904;4.256;2023-03-18T13:12:41;101057.06;;;16.39;59.31
48517;BME280;34310;51.904;4.256;2023-03-18T13:15:29;101045.88;;;16.42;59.36
48517;BME280;34310;51.904;4.256;2023-03-18T13:18:18;101052.88;;;16.43;59.13
48517;BME280;34310;51.904;4.256;2023-03-18T13:20:47;101051.25;;;16.45;59.41
48517;BME280;34310;51.904;4.256;2023-03-18T13:26:09;101048.81;;;16.48;59.35
48517;BME280;34310;51.904;4.256;2023-03-18T13:29:28;101040.19;;;16.49;59.48
48517;BME280;34310;51.904;4.256;2023-03-18T13:43:24;101030.22;;;16.58;59.60
48517;BME280;34310;51.904;4.256;2023-03-18T13:45:53;101030.28;;;16.60;59.67
48517;BME280;34310;51.904;4.256;2023-03-18T13:48:31;101033.03;;;16.63;59.56
48517;BME280;34310;51.904;4.256;2023-03-18T13:54:12;101027.19;;;16.67;59.79
48517;BME280;34310;51.904;4.256;2023-03-18T13:56:51;101030.69;;;16.67;59.48
48517;BME280;34310;51.904;4.256;2023-03-18T14:07:58;101018.03;;;16.75;59.65
48517;BME280;34310;51.904;4.256;2023-03-18T14:10:29;101022.41;;;16.76;59.49
48517;BME280;34310;51.904;4.256;2023-03-18T14:13:24;101026.91;;;16.79;59.45
48517;BME280;34310;51.904;4.256;2023-03-18T14:15:55;101025.19;;;16.79;59.68
48517;BME280;34310;51.904;4.256;2023-03-18T14:18:26;101014.84;;;16.81;59.46
48517;BME280;34310;51.904;4.256;2023-03-18T14:20:59;101011.41;;;16.82;59.40
48517;BME280;34310;51.904;4.256;2023-03-18T14:26:17;101006.34;;;16.85;59.52
48517;BME280;34310;51.904;4.256;2023-03-18T14:31:48;101005.59;;;16.87;59.34
48517;BME280;34310;51.904;4.256;2023-03-18T14:41:57;100986.66;;;16.91;59.45
48517;BME280;34310;51.904;4.256;2023-03-18T14:44:45;100991.06;;;16.92;59.30
48517;BME280;34310;51.904;4.256;2023-03-18T14:50:14;100984.25;;;16.96;59.30
48517;BME280;34310;51.904;4.256;2023-03-18T14:52:46;100983.44;;;16.97;59.29
48517;BME280;34310;51.904;4.256;2023-03-18T14:55:26;100980.84;;;16.97;59.35
48517;BME280;34310;51.904;4.256;2023-03-18T14:57:56;100978.22;;;16.97;59.34
48517;BME280;34310;51.904;4.256;2023-03-18T15:00:24;100975.69;;;16.98;59.21
48517;BME280;34310;51.904;4.256;2023-03-18T15:03:04;100967.03;;;16.99;59.16
48517;BME280;34310;51.904;4.256;2023-03-18T15:05:38;100968.81;;;17.00;59.24
48517;BME280;34310;51.904;4.256;2023-03-18T15:08:09;100966.22;;;17.00;59.25
48517;BME280;34310;51.904;4.256;2023-03-18T15:10:39;100959.28;;;17.01;59.15
48517;BME280;34310;51.904;4.256;2023-03-18T15:13:12;100968.00;;;17.01;59.32